Time;durP1;ratioP1;P1;durP2;ratioP2;P2;SDS_P1;SDS_P2;PMS_P1;PMS_P2;Temp;Humidity;BMP_temperature;BMP_pressure;BME280_temperature;BME280_humidity;BME280_pressure;Samples;Min_cycle;Max_cycle;Signal;HPM_P1;HPM_P2
2021/06/03 00:01:02;;;;;;;10.57;4.73;;;22.80;90.50;;;;;;4999805;28;20578;-79
2021/06/03 00:03:30;;;;;;;12.70;5.47;;;22.80;90.50;;;;;;4996209;28;20470;-79
2021/06/03 00:05:59;;;;;;;8.30;4.20;;;22.80;90.30;;;;;;4996222;28;20466;-79
2021/06/03 00:08:29;;;;;;;6.10;4.60;;;22.80;90.40;;;;;;4993001;28;20470;-79
2021/06/03 00:11:00;;;;;;;8.13;4.27;;;22.80;90.30;;;;;;5002615;28;20453;-79
2021/06/03 00:13:29;;;;;;;10.40;5.00;;;22.70;90.20;;;;;;5000357;28;20465;-79
2021/06/03 00:15:57;;;;;;;13.13;5.10;;;22.70;90.30;;;;;;5002257;28;20587;-79
2021/06/03 00:18:25;;;;;;;7.40;4.70;;;22.70;90.10;;;;;;4996245;28;20462;-79
2021/06/03 00:20:52;;;;;;;9.73;4.60;;;22.70;90.20;;;;;;4998185;28;20461;-79
2021/06/03 00:23:19;;;;;;;5.23;4.10;;;22.60;90.30;;;;;;4994537;28;20477;-79
2021/06/03 00:25:45;;;;;;;4.73;4.33;;;22.70;90.60;;;;;;5003674;28;20462;-79
2021/06/03 00:28:13;;;;;;;5.17;4.67;;;22.60;90.40;;;;;;4996801;28;21008;-79
2021/06/03 00:30:40;;;;;;;7.50;4.53;;;22.60;90.20;;;;;;4995449;28;20833;-80
2021/06/03 00:33:06;;;;;;;7.93;3.97;;;22.60;90.20;;;;;;4995785;28;20469;-78
2021/06/03 00:35:33;;;;;;;14.80;5.30;;;22.60;90.20;;;;;;5000115;28;20495;-78
2021/06/03 00:37:59;;;;;;;10.33;4.10;;;22.50;90.10;;;;;;4989936;28;20463;-77
2021/06/03 00:40:26;;;;;;;13.00;4.37;;;22.50;90.20;;;;;;4999926;28;20466;-78
2021/06/03 00:42:52;;;;;;;9.00;4.50;;;22.50;90.50;;;;;;4996407;28;20461;-77
2021/06/03 00:45:27;;;;;;;6.97;4.43;;;22.50;90.60;;;;;;4997767;28;20608;-78
2021/06/03 00:47:53;;;;;;;6.27;4.27;;;22.50;90.70;;;;;;4997602;28;20832;-78
2021/06/03 00:50:21;;;;;;;16.23;4.97;;;22.50;90.90;;;;;;4997925;28;20465;-78
2021/06/03 00:52:48;;;;;;;12.37;5.30;;;22.50;91.00;;;;;;4992315;28;20984;-78
2021/06/03 00:55:15;;;;;;;9.90;5.20;;;22.50;91.10;;;;;;5001030;28;20490;-77
2021/06/03 00:57:42;;;;;;;12.40;4.77;;;22.50;91.10;;;;;;5001623;28;20598;-78
2021/06/03 01:00:11;;;;;;;7.30;4.70;;;22.50;91.10;;;;;;4997512;28;20461;-78
2021/06/03 01:02:40;;;;;;;7.40;4.77;;;22.50;91.80;;;;;;4996487;28;20469;-78
2021/06/03 01:05:08;;;;;;;7.80;5.53;;;22.50;91.40;;;;;;4997048;28;20751;-79
2021/06/03 01:07:35;;;;;;;9.27;4.93;;;22.50;91.40;;;;;;4996391;28;20465;-77
2021/06/03 01:10:10;;;;;;;10.50;4.93;;;22.40;91.30;;;;;;4992641;28;20534;-78
2021/06/03 01:12:42;;;;;;;8.00;4.57;;;22.40;91.40;;;;;;5003499;28;20453;-78
2021/06/03 01:15:10;;;;;;;9.27;4.63;;;22.40;91.50;;;;;;5000745;28;20481;-78
2021/06/03 01:17:38;;;;;;;9.07;4.83;;;22.30;91.30;;;;;;4992827;28;20997;-78
2021/06/03 01:20:08;;;;;;;7.70;4.87;;;22.30;91.50;;;;;;4995070;28;20450;-78
2021/06/03 01:22:44;;;;;;;9.97;4.93;;;22.30;91.40;;;;;;4991549;28;20463;-78
2021/06/03 01:25:12;;;;;;;9.30;4.93;;;22.30;91.60;;;;;;4992542;28;20496;-78
2021/06/03 01:27:40;;;;;;;10.83;4.77;;;22.20;91.40;;;;;;5001220;28;20493;-78
2021/06/03 01:30:11;;;;;;;11.87;4.30;;;22.20;91.60;;;;;;4997790;28;20462;-78
2021/06/03 01:32:41;;;;;;;8.00;4.30;;;22.20;92.20;;;;;;4997352;28;21019;-77
2021/06/03 01:35:11;;;;;;;6.70;5.77;;;22.20;91.90;;;;;;4996215;28;20473;-78
2021/06/03 01:37:38;;;;;;;9.00;4.50;;;22.20;91.70;;;;;;4995756;28;20548;-78
2021/06/03 01:40:06;;;;;;;7.57;5.17;;;22.20;91.50;;;;;;4990957;28;20548;-78
2021/06/03 01:42:35;;;;;;;6.00;4.47;;;22.10;91.50;;;;;;4996898;28;20847;-78
2021/06/03 01:45:02;;;;;;;5.43;4.00;;;22.10;91.50;;;;;;4990346;28;20465;-78
2021/06/03 01:47:29;;;;;;;7.83;4.47;;;22.10;91.60;;;;;;4999277;28;20556;-78
2021/06/03 01:49:56;;;;;;;6.03;4.33;;;22.00;91.40;;;;;;4995133;28;20476;-77
2021/06/03 01:52:24;;;;;;;5.60;4.37;;;22.00;91.40;;;;;;4999050;28;20511;-78
2021/06/03 01:54:50;;;;;;;7.37;4.70;;;22.00;91.40;;;;;;4991241;28;20477;-78
2021/06/03 01:57:18;;;;;;;8.10;4.00;;;22.00;91.50;;;;;;4995393;28;20989;-78
2021/06/03 01:59:46;;;;;;;4.60;4.03;;;21.90;91.50;;;;;;4997658;28;20476;-78
2021/06/03 02:02:13;;;;;;;6.27;4.30;;;21.90;91.60;;;;;;4993471;28;20488;-78
2021/06/03 02:04:39;;;;;;;4.40;3.60;;;21.80;91.50;;;;;;4997029;28;20465;-78
2021/06/03 02:07:06;;;;;;;5.50;4.50;;;21.80;91.50;;;;;;4996412;28;20461;-78
2021/06/03 02:09:33;;;;;;;8.17;4.90;;;21.80;91.50;;;;;;4991409;28;20460;-78
2021/06/03 02:11:59;;;;;;;5.73;3.73;;;21.80;91.50;;;;;;5002726;28;20505;-78
2021/06/03 02:14:29;;;;;;;4.90;4.50;;;21.80;91.50;;;;;;5002741;28;20485;-79
2021/06/03 02:17:02;;;;;;;3.80;3.40;;;21.70;91.50;;;;;;5000004;28;20470;-79
2021/06/03 02:19:34;;;;;;;4.77;4.30;;;21.70;91.70;;;;;;4995969;28;20461;-79
2021/06/03 02:22:03;;;;;;;4.70;3.70;;;21.60;92.00;;;;;;4999100;28;20458;-79
2021/06/03 02:24:30;;;;;;;11.80;4.43;;;21.50;92.20;;;;;;4992774;28;20875;-79
2021/06/03 02:26:58;;;;;;;4.40;3.80;;;21.40;92.60;;;;;;5003107;28;20473;-79
2021/06/03 02:29:24;;;;;;;5.43;4.60;;;21.30;92.90;;;;;;4999217;28;20941;-79
2021/06/03 02:31:52;;;;;;;5.23;4.60;;;21.10;93.00;;;;;;4999615;28;20833;-79
2021/06/03 02:34:20;;;;;;;4.40;3.93;;;21.10;93.30;;;;;;4998128;28;20461;-79
2021/06/03 02:36:46;;;;;;;6.17;4.87;;;21.00;93.50;;;;;;4999822;28;20466;-78
2021/06/03 02:39:14;;;;;;;5.37;4.87;;;20.90;93.50;;;;;;5000882;28;20461;-79
2021/06/03 02:41:41;;;;;;;9.90;4.40;;;20.80;93.60;;;;;;4998572;28;20457;-79
2021/06/03 02:44:07;;;;;;;8.50;5.97;;;20.80;93.70;;;;;;4997981;28;20981;-79
2021/06/03 02:46:34;;;;;;;6.37;4.70;;;20.70;93.60;;;;;;4995462;28;20581;-79
2021/06/03 02:49:00;;;;;;;5.70;5.20;;;20.70;93.50;;;;;;4998470;28;20474;-79
2021/06/03 02:51:28;;;;;;;6.10;4.40;;;20.70;93.50;;;;;;4994464;28;20968;-79
2021/06/03 02:53:54;;;;;;;4.90;4.50;;;20.70;93.80;;;;;;4997923;28;20458;-79
2021/06/03 02:56:21;;;;;;;5.30;4.77;;;20.70;93.70;;;;;;4996361;28;20492;-79
2021/06/03 02:58:47;;;;;;;4.73;4.23;;;20.60;93.60;;;;;;4999819;28;20520;-79
2021/06/03 03:01:14;;;;;;;5.10;4.10;;;20.70;93.60;;;;;;5006366;28;20485;-79
2021/06/03 03:03:40;;;;;;;8.53;5.03;;;20.70;94.20;;;;;;5003783;28;20568;-79
2021/06/03 03:06:07;;;;;;;7.50;4.03;;;20.70;93.80;;;;;;4999667;28;20480;-79
2021/06/03 03:08:35;;;;;;;5.80;4.50;;;20.80;93.60;;;;;;4997509;28;20465;-79
2021/06/03 03:11:02;;;;;;;5.47;4.90;;;20.80;94.00;;;;;;5001038;28;20995;-79
2021/06/03 03:13:28;;;;;;;7.60;5.00;;;20.90;93.70;;;;;;4997140;28;20488;-79
2021/06/03 03:15:55;;;;;;;6.43;4.50;;;20.90;93.90;;;;;;5004142;28;22501;-79
2021/06/03 03:18:21;;;;;;;13.00;5.43;;;20.90;94.00;;;;;;5002983;28;20949;-79
2021/06/03 03:20:47;;;;;;;7.10;4.80;;;20.90;94.10;;;;;;4992629;28;20544;-79
2021/06/03 03:23:14;;;;;;;11.37;5.60;;;20.90;93.90;;;;;;4992730;28;20883;-79
2021/06/03 03:25:42;;;;;;;14.83;5.80;;;21.00;94.00;;;;;;5000842;28;20571;-79
2021/06/03 03:28:10;;;;;;;7.87;5.20;;;20.90;93.90;;;;;;4991543;28;21008;-79
2021/06/03 03:30:41;;;;;;;12.63;5.87;;;20.90;93.80;;;;;;4999612;28;20506;-79
2021/06/03 03:33:08;;;;;;;18.57;5.53;;;20.90;94.10;;;;;;4993399;28;20497;-79
2021/06/03 03:35:34;;;;;;;8.93;4.87;;;21.00;94.10;;;;;;5000610;28;21000;-79
2021/06/03 03:38:01;;;;;;;10.60;4.87;;;21.00;94.00;;;;;;4997355;28;20472;-79
2021/06/03 03:40:28;;;;;;;10.37;5.60;;;21.00;94.10;;;;;;4998740;28;20477;-79
2021/06/03 03:42:56;;;;;;;12.87;5.23;;;20.90;93.90;;;;;;5002790;28;20474;-78
2021/06/03 03:45:24;;;;;;;14.33;5.80;;;20.90;94.00;;;;;;5001391;28;20524;-79
2021/06/03 03:47:51;;;;;;;12.60;4.87;;;21.00;94.30;;;;;;4997690;28;20466;-79
2021/06/03 03:50:18;;;;;;;13.40;5.37;;;20.90;94.40;;;;;;4998133;28;20550;-79
2021/06/03 03:52:46;;;;;;;11.40;5.47;;;21.00;94.00;;;;;;5000979;28;20543;-79
2021/06/03 03:55:14;;;;;;;16.07;6.20;;;20.90;93.90;;;;;;5000440;28;20582;-79
2021/06/03 03:57:42;;;;;;;16.00;5.90;;;20.90;94.00;;;;;;5004618;28;20457;-79
2021/06/03 04:00:12;;;;;;;14.80;5.83;;;20.90;94.00;;;;;;5000823;28;20476;-79
2021/06/03 04:02:39;;;;;;;8.50;4.43;;;20.80;94.00;;;;;;5000477;28;20461;-79
2021/06/03 04:05:06;;;;;;;21.90;6.23;;;20.80;94.10;;;;;;4996870;28;20951;-79
2021/06/03 04:07:35;;;;;;;14.37;5.20;;;20.90;94.30;;;;;;4992895;28;20458;-79
2021/06/03 04:10:02;;;;;;;23.73;5.73;;;20.90;94.30;;;;;;4998482;28;20561;-79
2021/06/03 04:12:28;;;;;;;19.67;5.83;;;20.80;94.30;;;;;;4995944;28;20562;-79
2021/06/03 04:14:54;;;;;;;14.10;6.43;;;20.80;94.40;;;;;;4995437;28;20548;-79
2021/06/03 04:17:22;;;;;;;26.67;5.20;;;20.80;94.50;;;;;;4998674;28;20469;-79
2021/06/03 04:19:49;;;;;;;15.33;5.30;;;20.70;94.70;;;;;;4994989;28;20507;-79
2021/06/03 04:22:15;;;;;;;16.83;5.40;;;20.80;94.80;;;;;;4993695;28;20475;-79
2021/06/03 04:24:41;;;;;;;12.20;5.60;;;20.70;95.00;;;;;;4999559;28;20943;-79
2021/06/03 04:27:08;;;;;;;10.20;5.57;;;20.70;95.00;;;;;;4998637;28;20482;-79
2021/06/03 04:29:35;;;;;;;16.70;5.60;;;20.70;94.90;;;;;;5000705;28;21011;-79
2021/06/03 04:32:01;;;;;;;17.63;5.70;;;20.70;95.00;;;;;;4993748;28;20462;-79
2021/06/03 04:34:29;;;;;;;12.43;5.50;;;20.70;95.00;;;;;;4998527;28;20468;-79
2021/06/03 04:36:55;;;;;;;14.00;5.33;;;20.70;95.00;;;;;;4993410;28;20458;-79
2021/06/03 04:39:22;;;;;;;13.50;5.67;;;20.70;95.00;;;;;;4993091;28;20544;-78
2021/06/03 04:41:48;;;;;;;9.53;4.63;;;20.70;95.20;;;;;;5001736;28;21246;-79
2021/06/03 04:44:14;;;;;;;8.90;6.23;;;20.70;95.20;;;;;;4995934;28;20461;-79
2021/06/03 04:46:41;;;;;;;6.50;4.40;;;20.80;95.70;;;;;;5001331;28;20492;-79
2021/06/03 04:49:07;;;;;;;9.10;5.00;;;20.80;95.20;;;;;;4999271;28;21083;-79
2021/06/03 04:51:38;;;;;;;8.43;4.73;;;20.80;95.10;;;;;;4995410;28;20466;-79
2021/06/03 04:54:05;;;;;;;10.10;5.37;;;20.90;95.20;;;;;;4995302;28;21225;-79
2021/06/03 04:56:31;;;;;;;5.57;5.10;;;21.00;95.10;;;;;;4987613;28;21057;-79
2021/06/03 04:58:58;;;;;;;6.87;4.37;;;21.00;95.10;;;;;;4994736;28;20465;-79
2021/06/03 05:01:24;;;;;;;11.10;5.20;;;21.00;95.20;;;;;;4994051;28;20999;-79
2021/06/03 05:03:51;;;;;;;11.30;5.20;;;21.10;95.20;;;;;;4994853;28;20558;-78
2021/06/03 05:06:17;;;;;;;7.60;4.40;;;21.10;95.20;;;;;;5000170;28;20555;-79
2021/06/03 05:08:45;;;;;;;6.33;4.70;;;21.20;95.20;;;;;;4994371;28;20865;-79
2021/06/03 05:11:12;;;;;;;5.20;4.47;;;21.20;95.30;;;;;;4994364;28;20466;-79
2021/06/03 05:13:38;;;;;;;6.93;5.17;;;21.30;95.40;;;;;;4984962;28;21365;-78
2021/06/03 05:16:06;;;;;;;5.70;4.13;;;21.30;95.40;;;;;;4990594;28;20497;-79
2021/06/03 05:18:33;;;;;;;8.70;4.50;;;21.40;95.40;;;;;;4989764;28;20455;-79
2021/06/03 05:20:59;;;;;;;10.93;4.93;;;21.40;95.40;;;;;;4995959;28;20496;-79
2021/06/03 05:23:26;;;;;;;5.53;4.20;;;21.50;95.50;;;;;;4991151;28;20458;-78
2021/06/03 05:25:54;;;;;;;8.30;4.43;;;21.50;95.60;;;;;;4999153;28;20461;-79
2021/06/03 05:28:21;;;;;;;9.70;4.20;;;21.60;95.60;;;;;;4991323;28;20553;-79
2021/06/03 05:30:47;;;;;;;10.43;4.83;;;21.70;95.80;;;;;;4994938;28;20466;-79
2021/06/03 05:33:14;;;;;;;12.30;4.80;;;21.70;95.80;;;;;;4999108;28;20472;-79
2021/06/03 05:35:40;;;;;;;5.60;4.00;;;21.80;95.80;;;;;;4989026;28;20521;-79
2021/06/03 05:38:07;;;;;;;12.33;4.80;;;21.90;95.70;;;;;;4991608;28;20496;-78
2021/06/03 05:40:33;;;;;;;6.10;4.30;;;22.00;95.70;;;;;;4992246;28;20501;-79
2021/06/03 05:43:02;;;;;;;6.00;4.20;;;22.10;95.80;;;;;;4996272;28;20527;-79
2021/06/03 05:45:29;;;;;;;5.47;4.40;;;22.10;95.80;;;;;;4997228;28;20473;-79
2021/06/03 05:47:56;;;;;;;4.60;3.90;;;22.20;95.80;;;;;;4992092;28;21332;-78
2021/06/03 05:50:24;;;;;;;13.73;4.77;;;22.20;95.90;;;;;;4995025;28;20464;-79
2021/06/03 05:52:51;;;;;;;15.00;4.60;;;22.20;95.80;;;;;;4990777;28;20476;-79
2021/06/03 05:55:19;;;;;;;8.13;5.10;;;22.30;95.90;;;;;;4997332;28;20493;-78
2021/06/03 05:57:45;;;;;;;11.47;4.97;;;22.30;96.00;;;;;;4989221;28;20473;-79
2021/06/03 06:00:15;;;;;;;7.40;4.00;;;22.30;96.40;;;;;;4999700;28;20552;-79
2021/06/03 06:02:51;;;;;;;11.17;4.70;;;22.30;96.10;;;;;;4997696;28;20497;-79
2021/06/03 06:08:04;;;;;;;7.30;4.43;;;22.30;96.20;;;;;;4989970;28;20488;-81
2021/06/03 06:10:31;;;;;;;6.10;4.83;;;22.30;96.50;;;;;;4989172;28;20461;-80
2021/06/03 06:12:58;;;;;;;10.67;5.07;;;22.30;96.60;;;;;;4986569;28;20469;-80
2021/06/03 06:15:27;;;;;;;13.33;4.80;;;22.20;97.00;;;;;;4999425;28;20485;-79
2021/06/03 06:17:53;;;;;;;10.90;5.00;;;22.20;97.40;;;;;;4995989;28;20462;-79
2021/06/03 06:20:20;;;;;;;8.97;4.77;;;22.30;97.80;;;;;;4992635;28;20484;-80
2021/06/03 06:22:46;;;;;;;8.53;4.43;;;22.30;98.10;;;;;;4992531;28;20469;-80
2021/06/03 06:25:13;;;;;;;10.30;5.50;;;22.30;98.20;;;;;;4994704;28;20449;-89
2021/06/03 06:27:39;;;;;;;9.23;4.67;;;22.20;98.30;;;;;;4995937;28;20497;-86
2021/06/03 06:30:09;;;;;;;10.83;5.07;;;22.30;98.50;;;;;;4995171;28;20546;-79
2021/06/03 06:32:37;;;;;;;17.97;5.50;;;22.30;98.90;;;;;;4996166;28;20501;-79
2021/06/03 06:35:04;;;;;;;7.70;5.17;;;22.30;99.10;;;;;;5001284;28;20588;-79
2021/06/03 06:37:31;;;;;;;9.33;4.83;;;22.30;99.20;;;;;;4996741;28;21012;-79
2021/06/03 06:39:57;;;;;;;9.73;5.97;;;22.30;99.10;;;;;;4994509;28;20461;-79
2021/06/03 06:42:24;;;;;;;9.67;5.40;;;22.30;99.10;;;;;;5000847;28;20964;-80
2021/06/03 06:44:51;;;;;;;8.80;5.80;;;22.30;99.40;;;;;;4997133;28;20467;-79
2021/06/03 06:47:17;;;;;;;15.27;5.03;;;22.30;99.50;;;;;;4997297;28;20461;-79
2021/06/03 06:49:45;;;;;;;12.50;5.40;;;22.30;99.60;;;;;;4998254;28;20778;-80
2021/06/03 06:52:11;;;;;;;7.10;4.43;;;22.30;99.60;;;;;;4998312;28;20526;-80
2021/06/03 06:54:39;;;;;;;11.27;5.60;;;22.30;99.70;;;;;;4999952;28;20462;-80
2021/06/03 06:57:06;;;;;;;11.60;5.43;;;22.30;99.80;;;;;;5000759;28;20501;-79
2021/06/03 06:59:32;;;;;;;12.10;6.23;;;22.30;99.80;;;;;;4998461;28;20472;-79
2021/06/03 07:01:59;;;;;;;7.97;5.30;;;22.30;99.70;;;;;;4995096;28;20478;-80
2021/06/03 07:04:25;;;;;;;10.07;5.20;;;22.30;99.70;;;;;;4997747;28;20461;-80
2021/06/03 07:06:53;;;;;;;16.13;5.53;;;22.30;99.90;;;;;;4994651;28;20474;-80
2021/06/03 07:09:19;;;;;;;8.90;4.80;;;22.30;99.90;;;;;;4994824;28;20471;-80
2021/06/03 07:11:46;;;;;;;17.00;4.97;;;22.30;99.90;;;;;;4999531;28;20507;-79
2021/06/03 07:14:12;;;;;;;10.13;5.27;;;22.30;99.90;;;;;;4999780;28;20461;-79
2021/06/03 07:16:38;;;;;;;14.73;4.80;;;22.40;99.80;;;;;;4995517;28;20493;-79
2021/06/03 07:19:05;;;;;;;14.10;5.60;;;22.40;99.80;;;;;;5000481;28;20852;-79
2021/06/03 07:21:31;;;;;;;13.63;4.80;;;22.50;99.80;;;;;;4997142;28;20466;-79
2021/06/03 07:23:59;;;;;;;11.60;5.40;;;22.50;99.70;;;;;;4997573;28;20470;-79
2021/06/03 07:26:26;;;;;;;13.27;5.83;;;22.50;99.80;;;;;;4997407;28;20477;-79
2021/06/03 07:28:52;;;;;;;15.10;5.97;;;22.60;99.90;;;;;;4999438;28;20471;-79
2021/06/03 07:31:19;;;;;;;15.33;5.43;;;22.70;99.90;;;;;;4996405;28;21034;-79
2021/06/03 07:33:45;;;;;;;7.83;3.97;;;22.70;99.90;;;;;;4995822;28;20464;-79
2021/06/03 07:36:12;;;;;;;11.20;4.83;;;22.80;99.90;;;;;;5000292;28;20486;-80
2021/06/03 07:38:39;;;;;;;9.93;5.30;;;22.80;99.90;;;;;;4998744;28;20480;-79
2021/06/03 07:41:08;;;;;;;9.73;6.10;;;22.80;99.90;;;;;;4994021;28;20949;-79
2021/06/03 07:43:35;;;;;;;12.17;5.60;;;22.90;99.90;;;;;;4993209;28;20466;-79
2021/06/03 07:46:02;;;;;;;11.60;5.00;;;22.90;99.90;;;;;;4995131;28;20469;-79
2021/06/03 07:48:28;;;;;;;10.47;4.90;;;22.90;99.90;;;;;;4997142;28;20875;-79
2021/06/03 07:50:55;;;;;;;14.30;6.43;;;23.00;99.90;;;;;;4991995;28;20497;-79
2021/06/03 07:53:21;;;;;;;13.50;5.90;;;23.00;99.90;;;;;;4992504;28;20561;-79
2021/06/03 07:55:48;;;;;;;19.43;5.23;;;23.00;99.90;;;;;;4997564;28;20848;-80
2021/06/03 07:58:15;;;;;;;16.00;4.70;;;23.00;99.90;;;;;;4992979;28;20463;-79
2021/06/03 08:00:43;;;;;;;8.67;4.67;;;23.10;99.90;;;;;;5000621;28;20485;-79
2021/06/03 08:03:10;;;;;;;9.23;5.80;;;23.20;99.90;;;;;;4997161;28;20462;-79
2021/06/03 08:05:37;;;;;;;6.07;4.53;;;23.20;99.90;;;;;;4998652;28;20469;-79
2021/06/03 08:08:04;;;;;;;5.53;4.60;;;23.20;99.90;;;;;;5002659;28;20976;-78
2021/06/03 08:10:32;;;;;;;8.27;5.40;;;23.30;99.90;;;;;;4999208;28;20959;-79
2021/06/03 08:13:01;;;;;;;5.77;5.00;;;23.30;99.90;;;;;;4999476;28;20454;-79
2021/06/03 08:15:33;;;;;;;4.67;4.20;;;23.40;99.90;;;;;;4997616;28;20491;-79
2021/06/03 08:18:00;;;;;;;6.20;5.10;;;23.40;99.90;;;;;;4997397;28;21012;-79
2021/06/03 08:20:32;;;;;;;5.20;4.70;;;23.50;99.90;;;;;;4995812;28;20528;-79
2021/06/03 08:22:58;;;;;;;8.80;5.23;;;23.50;99.90;;;;;;4993221;28;20467;-79
2021/06/03 08:25:25;;;;;;;10.23;5.13;;;23.70;99.90;;;;;;4998963;28;20464;-78
2021/06/03 08:27:51;;;;;;;5.30;4.27;;;23.80;99.90;;;;;;4996905;28;20938;-79
2021/06/03 08:30:19;;;;;;;5.57;5.07;;;23.90;99.90;;;;;;4995448;28;20966;-79
2021/06/03 08:32:48;;;;;;;6.40;5.27;;;24.00;99.90;;;;;;4991761;28;20468;-79
2021/06/03 08:35:17;;;;;;;4.93;4.57;;;24.10;99.90;;;;;;4995422;28;20970;-79
2021/06/03 08:37:46;;;;;;;5.17;4.47;;;24.20;99.90;;;;;;4996381;28;20476;-78
2021/06/03 08:40:17;;;;;;;6.93;5.00;;;24.30;99.90;;;;;;4996115;28;20508;-78
2021/06/03 08:42:44;;;;;;;5.87;4.10;;;24.40;99.90;;;;;;4997890;28;20461;-79
2021/06/03 08:45:14;;;;;;;4.93;4.10;;;24.40;99.90;;;;;;4994700;28;20465;-79
2021/06/03 08:47:41;;;;;;;5.93;3.93;;;24.40;99.90;;;;;;4995971;28;20485;-79
2021/06/03 08:50:10;;;;;;;4.33;3.70;;;24.40;99.90;;;;;;4994888;28;20906;-78
2021/06/03 08:52:37;;;;;;;5.40;3.30;;;24.40;99.90;;;;;;4998468;28;20508;-78
2021/06/03 08:55:07;;;;;;;4.70;3.53;;;24.40;99.90;;;;;;4991496;28;20566;-79
2021/06/03 08:57:33;;;;;;;5.50;3.43;;;24.40;99.90;;;;;;4993498;28;20454;-80
2021/06/03 09:00:01;;;;;;;3.83;3.43;;;24.30;99.90;;;;;;4997469;28;20822;-80
2021/06/03 09:02:27;;;;;;;3.70;3.30;;;24.30;99.90;;;;;;5000782;28;20531;-80
2021/06/03 09:04:54;;;;;;;3.17;2.97;;;24.20;99.90;;;;;;4997521;28;20914;-80
2021/06/03 09:07:33;;;;;;;3.67;3.27;;;24.20;99.90;;;;;;4990724;28;20466;-78
2021/06/03 09:10:32;;;;;;;4.43;4.03;;;24.10;99.90;;;;;;4995013;28;20453;-81
2021/06/03 09:13:13;;;;;;;4.80;4.30;;;24.10;99.90;;;;;;4995565;28;20461;-80
2021/06/03 09:15:42;;;;;;;3.77;3.47;;;24.00;99.90;;;;;;5000611;28;20956;-81
2021/06/03 09:18:09;;;;;;;4.30;3.60;;;24.00;99.90;;;;;;4998821;28;20464;-81
2021/06/03 09:20:38;;;;;;;4.80;3.80;;;24.00;99.90;;;;;;4996421;28;20957;-81
2021/06/03 09:23:07;;;;;;;4.40;4.00;;;24.00;99.90;;;;;;4997040;28;20507;-81
2021/06/03 09:25:38;;;;;;;8.27;3.93;;;24.00;99.90;;;;;;4993290;28;20547;-80
2021/06/03 09:28:26;;;;;;;4.03;3.63;;;24.00;99.90;;;;;;4992294;28;20518;-80
2021/06/03 09:31:18;;;;;;;4.00;3.70;;;24.00;99.90;;;;;;4990363;28;20462;-80
2021/06/03 09:33:48;;;;;;;4.83;4.33;;;24.10;99.90;;;;;;4994762;28;20649;-80
2021/06/03 09:36:17;;;;;;;4.90;4.40;;;24.10;99.90;;;;;;4995688;28;20520;-79
2021/06/03 09:39:10;;;;;;;4.53;3.67;;;24.10;99.90;;;;;;4999954;28;20469;-81
2021/06/03 09:41:40;;;;;;;4.37;3.97;;;24.20;99.90;;;;;;4994791;28;20460;-80
2021/06/03 09:44:14;;;;;;;5.60;4.10;;;24.20;99.90;;;;;;4994719;28;20465;-81
2021/06/03 09:46:43;;;;;;;7.67;4.10;;;24.20;99.90;;;;;;4995648;28;20536;-80
2021/06/03 09:49:19;;;;;;;4.20;3.80;;;24.30;99.90;;;;;;4996011;28;20457;-80
2021/06/03 09:51:47;;;;;;;5.53;4.27;;;24.30;99.90;;;;;;4986029;28;20496;-80
2021/06/03 09:54:19;;;;;;;6.97;4.80;;;24.30;99.90;;;;;;4997732;28;20548;-80
2021/06/03 09:56:49;;;;;;;4.80;4.37;;;24.20;99.90;;;;;;4997770;28;20840;-81
2021/06/03 09:59:18;;;;;;;6.33;4.17;;;24.20;99.90;;;;;;4993616;28;20465;-81
2021/06/03 10:02:05;;;;;;;5.10;4.20;;;24.20;99.90;;;;;;4988706;28;20840;-80
2021/06/03 10:04:43;;;;;;;8.40;4.00;;;24.20;99.90;;;;;;4984243;28;20478;-81
2021/06/03 10:07:18;;;;;;;5.20;4.70;;;24.30;99.90;;;;;;4995105;28;20857;-80
2021/06/03 10:09:52;;;;;;;6.97;4.50;;;24.30;99.90;;;;;;4997486;28;20461;-80
2021/06/03 10:12:37;;;;;;;4.97;4.47;;;24.30;99.90;;;;;;4995767;28;20465;-80
2021/06/03 10:15:09;;;;;;;5.17;4.67;;;24.30;99.90;;;;;;5010106;28;20458;-80
2021/06/03 10:17:37;;;;;;;5.07;4.57;;;24.30;99.90;;;;;;4993859;28;20460;-81
2021/06/03 10:20:08;;;;;;;4.83;4.43;;;24.30;99.90;;;;;;4993152;28;20480;-81
2021/06/03 10:22:35;;;;;;;5.40;4.00;;;24.30;99.90;;;;;;4993571;28;20461;-81
2021/06/03 10:25:08;;;;;;;5.10;3.63;;;24.30;99.90;;;;;;4996617;28;20779;-81
2021/06/03 10:27:36;;;;;;;6.07;5.43;;;24.40;99.90;;;;;;4989564;28;20482;-81
2021/06/03 10:30:11;;;;;;;5.60;5.10;;;24.40;99.90;;;;;;4996572;28;20539;-81
2021/06/03 10:32:39;;;;;;;7.23;5.63;;;24.40;99.90;;;;;;4990859;28;20469;-81
2021/06/03 10:35:09;;;;;;;5.77;4.80;;;24.40;99.90;;;;;;4996214;28;20556;-81
2021/06/03 10:37:36;;;;;;;5.80;5.13;;;24.60;99.90;;;;;;4993200;28;20699;-82
2021/06/03 10:40:06;;;;;;;6.57;4.60;;;24.60;99.90;;;;;;4994555;28;20458;-82
2021/06/03 10:42:33;;;;;;;5.53;4.90;;;24.70;99.90;;;;;;4993045;28;20560;-81
2021/06/03 10:45:01;;;;;;;5.30;4.23;;;24.80;99.90;;;;;;4998914;28;20468;-82
2021/06/03 10:47:28;;;;;;;4.10;3.80;;;24.90;99.90;;;;;;4991476;28;20858;-81
2021/06/03 10:49:56;;;;;;;5.50;4.20;;;24.90;99.90;;;;;;4993661;28;20630;-81
2021/06/03 10:52:23;;;;;;;3.57;3.27;;;25.00;99.90;;;;;;4992890;28;20454;-81
2021/06/03 10:54:52;;;;;;;4.20;3.37;;;25.00;99.90;;;;;;4997888;28;20891;-81
2021/06/03 10:57:22;;;;;;;3.90;3.50;;;25.10;99.90;;;;;;4994160;28;21162;-81
2021/06/03 10:59:49;;;;;;;3.93;3.63;;;25.10;99.90;;;;;;4995375;28;20461;-81
2021/06/03 11:02:16;;;;;;;5.50;3.87;;;25.10;99.90;;;;;;4992031;28;20480;-81
2021/06/03 11:04:45;;;;;;;5.27;4.80;;;25.20;99.90;;;;;;4995858;28;20467;-82
2021/06/03 11:07:12;;;;;;;8.00;5.73;;;25.20;99.90;;;;;;4988374;28;20621;-81
2021/06/03 11:09:43;;;;;;;5.80;4.80;;;25.30;99.90;;;;;;4995011;28;20502;-81
2021/06/03 11:12:28;;;;;;;7.17;4.53;;;25.30;99.90;;;;;;4997200;28;20453;-80
2021/06/03 11:15:09;;;;;;;5.53;5.07;;;25.40;99.90;;;;;;4992981;28;20457;-83
2021/06/03 11:17:53;;;;;;;6.40;4.93;;;25.40;99.90;;;;;;4990965;28;20457;-81
2021/06/03 11:20:36;;;;;;;7.20;5.27;;;25.50;99.90;;;;;;4994285;28;20494;-80
2021/06/03 11:23:41;;;;;;;8.40;5.33;;;25.50;99.90;;;;;;4992903;28;20470;-80
2021/06/03 11:26:08;;;;;;;7.37;5.53;;;25.50;99.90;;;;;;4996928;28;20480;-81
2021/06/03 11:28:36;;;;;;;6.90;6.20;;;25.50;99.90;;;;;;4993553;28;20563;-81
2021/06/03 11:31:23;;;;;;;6.73;6.00;;;25.50;99.90;;;;;;5000254;28;20552;-81
2021/06/03 11:34:06;;;;;;;7.50;6.80;;;25.60;99.90;;;;;;4996363;28;20608;-80
2021/06/03 11:36:34;;;;;;;9.40;6.30;;;25.70;99.90;;;;;;4994597;28;20519;-82
2021/06/03 11:39:01;;;;;;;9.23;6.57;;;25.90;99.90;;;;;;4997164;28;20891;-80
2021/06/03 11:41:38;;;;;;;7.30;5.93;;;26.10;99.90;;;;;;4999035;28;21054;-81
2021/06/03 11:44:10;;;;;;;6.90;5.80;;;26.10;99.90;;;;;;4992806;28;20547;-80
2021/06/03 11:47:01;;;;;;;8.97;6.73;;;26.20;99.90;;;;;;5003222;28;20494;-80
2021/06/03 11:49:36;;;;;;;11.20;6.00;;;26.30;99.90;;;;;;4997222;28;20461;-80
2021/06/03 11:52:12;;;;;;;6.83;6.20;;;26.50;99.90;;;;;;4997944;28;20590;-80
2021/06/03 11:54:52;;;;;;;7.27;6.40;;;26.80;99.90;;;;;;4994306;28;20465;-81
2021/06/03 11:57:18;;;;;;;7.80;7.10;;;27.00;99.90;;;;;;4998302;28;20923;-80
2021/06/03 11:59:57;;;;;;;14.67;7.13;;;27.20;99.90;;;;;;4995950;28;20465;-80
2021/06/03 12:02:31;;;;;;;7.73;7.03;;;27.30;99.90;;;;;;4998702;28;20464;-80
2021/06/03 12:05:19;;;;;;;8.20;7.40;;;27.20;99.90;;;;;;5001283;28;20449;-80
2021/06/03 12:07:47;;;;;;;8.60;7.70;;;26.90;99.90;;;;;;4998985;28;20453;-80
2021/06/03 12:10:16;;;;;;;8.47;6.63;;;26.70;99.90;;;;;;4997368;28;20468;-80
2021/06/03 12:12:43;;;;;;;11.50;7.70;;;26.50;99.90;;;;;;5003994;28;20461;-80
2021/06/03 12:15:22;;;;;;;8.60;7.60;;;26.20;99.90;;;;;;4998819;28;20462;-79
2021/06/03 12:17:53;;;;;;;13.60;8.80;;;26.00;99.90;;;;;;5001831;28;20457;-79
2021/06/03 12:20:20;;;;;;;14.23;9.73;;;25.80;99.90;;;;;;5003945;28;20453;-81
2021/06/03 12:22:47;;;;;;;12.33;10.20;;;25.60;99.90;;;;;;5000253;28;20453;-80
2021/06/03 12:25:13;;;;;;;16.87;10.20;;;25.40;99.90;;;;;;5002630;28;20476;-80
2021/06/03 12:27:43;;;;;;;11.30;9.03;;;25.30;99.90;;;;;;4998622;28;20496;-84
2021/06/03 12:30:13;;;;;;;13.90;9.13;;;25.10;99.90;;;;;;5000348;28;20469;-81
2021/06/03 12:32:41;;;;;;;10.00;8.90;;;25.00;99.90;;;;;;4998130;28;20488;-82
2021/06/03 12:35:08;;;;;;;16.53;9.47;;;24.90;99.90;;;;;;5002734;28;20901;-82
2021/06/03 12:37:37;;;;;;;7.80;6.93;;;24.80;99.90;;;;;;4998753;28;20493;-80
2021/06/03 12:40:08;;;;;;;6.57;5.77;;;24.70;99.90;;;;;;4999742;28;20452;-83
2021/06/03 12:42:35;;;;;;;7.33;6.63;;;24.60;99.90;;;;;;5002638;28;20879;-83
2021/06/03 12:45:06;;;;;;;12.43;6.17;;;24.50;99.90;;;;;;4994302;28;21042;-82
2021/06/03 12:47:34;;;;;;;8.07;7.10;;;24.40;99.90;;;;;;5007507;28;20457;-81
2021/06/03 12:50:12;;;;;;;11.03;7.23;;;24.20;99.90;;;;;;5001578;28;20468;-81
2021/06/03 12:52:39;;;;;;;10.07;7.40;;;24.10;99.90;;;;;;4996964;28;20463;-81
2021/06/03 12:55:09;;;;;;;9.43;7.50;;;23.90;99.90;;;;;;4995981;28;20472;-82